sensor_id;sensor_type;location;lat;lon;timestamp;temperature;humidity
56300;DHT22;42209;6.376;-10.782;2023-04-06T00:02:15;23.00;50.70
56300;DHT22;42209;6.376;-10.782;2023-04-06T00:04:44;23.10;53.60
56300;DHT22;42209;6.376;-10.782;2023-04-06T00:07:12;23.20;48.90
56300;DHT22;42209;6.376;-10.782;2023-04-06T00:09:40;23.10;46.40
56300;DHT22;42209;6.376;-10.782;2023-04-06T00:12:08;23.00;45.20
56300;DHT22;42209;6.376;-10.782;2023-04-06T00:14:37;22.80;44.70
56300;DHT22;42209;6.376;-10.782;2023-04-06T00:17:05;22.70;44.10
56300;DHT22;42209;6.376;-10.782;2023-04-06T00:19:33;22.60;43.70
56300;DHT22;42209;6.376;-10.782;2023-04-06T00:22:02;22.60;43.30
56300;DHT22;42209;6.376;-10.782;2023-04-06T00:24:30;22.60;42.80
56300;DHT22;42209;6.376;-10.782;2023-04-06T00:26:59;22.60;42.50
56300;DHT22;42209;6.376;-10.782;2023-04-06T00:29:27;22.60;42.20
56300;DHT22;42209;6.376;-10.782;2023-04-06T00:31:55;22.50;41.90
56300;DHT22;42209;6.376;-10.782;2023-04-06T00:34:24;22.50;42.10
56300;DHT22;42209;6.376;-10.782;2023-04-06T00:36:52;22.50;41.90
56300;DHT22;42209;6.376;-10.782;2023-04-06T00:39:20;22.40;41.90
56300;DHT22;42209;6.376;-10.782;2023-04-06T00:41:51;22.40;41.30
56300;DHT22;42209;6.376;-10.782;2023-04-06T00:44:20;22.60;46.50
56300;DHT22;42209;6.376;-10.782;2023-04-06T00:46:49;22.90;51.80
56300;DHT22;42209;6.376;-10.782;2023-04-06T01:01:33;23.10;55.80
56300;DHT22;42209;6.376;-10.782;2023-04-06T01:04:12;23.00;47.10
56300;DHT22;42209;6.376;-10.782;2023-04-06T01:06:42;22.90;45.90
56300;DHT22;42209;6.376;-10.782;2023-04-06T01:09:10;22.80;45.20
56300;DHT22;42209;6.376;-10.782;2023-04-06T01:11:38;22.70;44.70
56300;DHT22;42209;6.376;-10.782;2023-04-06T01:14:11;22.70;44.20
56300;DHT22;42209;6.376;-10.782;2023-04-06T01:16:52;22.60;43.60
56300;DHT22;42209;6.376;-10.782;2023-04-06T01:19:26;22.60;43.20
56300;DHT22;42209;6.376;-10.782;2023-04-06T01:21:55;22.50;42.70
56300;DHT22;42209;6.376;-10.782;2023-04-06T01:24:29;22.50;42.40
56300;DHT22;42209;6.376;-10.782;2023-04-06T01:27:04;22.50;42.20
56300;DHT22;42209;6.376;-10.782;2023-04-06T01:29:51;22.60;47.70
56300;DHT22;42209;6.376;-10.782;2023-04-06T01:32:36;22.90;52.30
56300;DHT22;42209;6.376;-10.782;2023-04-06T01:35:07;23.00;55.50
56300;DHT22;42209;6.376;-10.782;2023-04-06T01:37:46;23.20;54.60
56300;DHT22;42209;6.376;-10.782;2023-04-06T01:40:23;23.10;49.80
56300;DHT22;42209;6.376;-10.782;2023-04-06T01:42:52;23.00;47.30
56300;DHT22;42209;6.376;-10.782;2023-04-06T01:45:29;22.90;46.40
56300;DHT22;42209;6.376;-10.782;2023-04-06T01:48:04;22.80;45.90
56300;DHT22;42209;6.376;-10.782;2023-04-06T01:50:32;22.70;45.00
56300;DHT22;42209;6.376;-10.782;2023-04-06T01:53:00;22.60;44.30
56300;DHT22;42209;6.376;-10.782;2023-04-06T01:55:30;22.60;43.70
56300;DHT22;42209;6.376;-10.782;2023-04-06T01:58:19;22.60;43.40
56300;DHT22;42209;6.376;-10.782;2023-04-06T02:00:48;22.60;42.90
56300;DHT22;42209;6.376;-10.782;2023-04-06T02:03:17;22.60;42.50
56300;DHT22;42209;6.376;-10.782;2023-04-06T02:05:46;22.50;42.60
56300;DHT22;42209;6.376;-10.782;2023-04-06T02:08:22;22.50;41.90
56300;DHT22;42209;6.376;-10.782;2023-04-06T02:10:50;22.40;41.60
56300;DHT22;42209;6.376;-10.782;2023-04-06T02:13:33;22.40;41.40
56300;DHT22;42209;6.376;-10.782;2023-04-06T02:16:01;22.40;41.20
56300;DHT22;42209;6.376;-10.782;2023-04-06T02:18:31;22.40;41.00
56300;DHT22;42209;6.376;-10.782;2023-04-06T02:20:59;22.30;40.70
56300;DHT22;42209;6.376;-10.782;2023-04-06T02:23:27;22.30;41.10
56300;DHT22;42209;6.376;-10.782;2023-04-06T02:25:57;22.30;40.30
56300;DHT22;42209;6.376;-10.782;2023-04-06T02:28:25;22.30;40.40
56300;DHT22;42209;6.376;-10.782;2023-04-06T02:30:53;22.30;40.30
56300;DHT22;42209;6.376;-10.782;2023-04-06T02:33:26;22.30;42.80
56300;DHT22;42209;6.376;-10.782;2023-04-06T02:35:54;22.60;47.00
56300;DHT22;42209;6.376;-10.782;2023-04-06T02:38:22;22.80;51.30
56300;DHT22;42209;6.376;-10.782;2023-04-06T02:40:52;23.00;52.40
56300;DHT22;42209;6.376;-10.782;2023-04-06T02:43:25;23.10;54.70
56300;DHT22;42209;6.376;-10.782;2023-04-06T02:46:02;23.10;49.10
56300;DHT22;42209;6.376;-10.782;2023-04-06T02:48:34;22.90;46.90
56300;DHT22;42209;6.376;-10.782;2023-04-06T08:46:13;23.00;68.90
56300;DHT22;42209;6.376;-10.782;2023-04-06T08:48:42;22.90;60.20
56300;DHT22;42209;6.376;-10.782;2023-04-06T08:51:10;22.80;57.90
56300;DHT22;42209;6.376;-10.782;2023-04-06T08:53:39;22.60;56.10
56300;DHT22;42209;6.376;-10.782;2023-04-06T08:56:07;22.60;61.00
56300;DHT22;42209;6.376;-10.782;2023-04-06T08:58:39;22.80;65.20
56300;DHT22;42209;6.376;-10.782;2023-04-06T09:01:11;22.90;67.30
56300;DHT22;42209;6.376;-10.782;2023-04-06T09:03:40;23.10;70.00
56300;DHT22;42209;6.376;-10.782;2023-04-06T09:06:10;23.10;65.30
56300;DHT22;42209;6.376;-10.782;2023-04-06T09:08:40;22.90;60.30
56300;DHT22;42209;6.376;-10.782;2023-04-06T09:11:08;22.70;57.90
56300;DHT22;42209;6.376;-10.782;2023-04-06T09:13:51;22.50;55.80
56300;DHT22;42209;6.376;-10.782;2023-04-06T09:16:20;22.50;61.00
56300;DHT22;42209;6.376;-10.782;2023-04-06T09:18:49;22.70;64.20
56300;DHT22;42209;6.376;-10.782;2023-04-06T09:21:18;22.80;66.30
56300;DHT22;42209;6.376;-10.782;2023-04-06T09:24:02;23.00;68.90
56300;DHT22;42209;6.376;-10.782;2023-04-06T09:26:30;23.00;62.50
56300;DHT22;42209;6.376;-10.782;2023-04-06T09:28:59;22.80;58.30
56300;DHT22;42209;6.376;-10.782;2023-04-06T09:31:31;22.70;56.40
56300;DHT22;42209;6.376;-10.782;2023-04-06T09:33:59;22.50;54.30
56300;DHT22;42209;6.376;-10.782;2023-04-06T09:36:35;22.50;58.50
56300;DHT22;42209;6.376;-10.782;2023-04-06T09:39:04;22.60;62.20
56300;DHT22;42209;6.376;-10.782;2023-04-06T09:41:34;22.80;64.90
56300;DHT22;42209;6.376;-10.782;2023-04-06T09:46:42;23.10;62.20
56300;DHT22;42209;6.376;-10.782;2023-04-06T09:49:31;22.90;59.20
56300;DHT22;42209;6.376;-10.782;2023-04-06T09:52:03;22.70;56.10
56300;DHT22;42209;6.376;-10.782;2023-04-06T09:54:32;22.50;54.00
56300;DHT22;42209;6.376;-10.782;2023-04-06T09:57:25;22.40;55.10
56300;DHT22;42209;6.376;-10.782;2023-04-06T10:00:07;22.50;59.10
56300;DHT22;42209;6.376;-10.782;2023-04-06T10:05:18;22.90;65.00
56300;DHT22;42209;6.376;-10.782;2023-04-06T10:07:48;23.00;65.90
56300;DHT22;42209;6.376;-10.782;2023-04-06T10:10:28;22.90;59.80
56300;DHT22;42209;6.376;-10.782;2023-04-06T10:12:57;22.70;56.90
56300;DHT22;42209;6.376;-10.782;2023-04-06T10:15:31;22.60;54.80
56300;DHT22;42209;6.376;-10.782;2023-04-06T10:18:00;22.40;52.90
56300;DHT22;42209;6.376;-10.782;2023-04-06T10:20:47;22.50;57.10
56300;DHT22;42209;6.376;-10.782;2023-04-06T10:23:29;22.80;62.00
56300;DHT22;42209;6.376;-10.782;2023-04-06T10:26:00;23.00;65.00
56300;DHT22;42209;6.376;-10.782;2023-04-06T10:28:35;23.10;63.70
56300;DHT22;42209;6.376;-10.782;2023-04-06T10:31:06;23.00;58.60
56300;DHT22;42209;6.376;-10.782;2023-04-06T10:33:35;22.90;55.90
56300;DHT22;42209;6.376;-10.782;2023-04-06T10:36:22;22.70;54.10
56300;DHT22;42209;6.376;-10.782;2023-04-06T10:39:02;22.60;52.60
56300;DHT22;42209;6.376;-10.782;2023-04-06T10:41:35;22.50;51.20
56300;DHT22;42209;6.376;-10.782;2023-04-06T10:44:03;22.40;50.40
56300;DHT22;42209;6.376;-10.782;2023-04-06T10:46:33;22.30;49.50
56300;DHT22;42209;6.376;-10.782;2023-04-06T10:49:12;22.30;48.90
56300;DHT22;42209;6.376;-10.782;2023-04-06T10:51:40;22.30;50.50
56300;DHT22;42209;6.376;-10.782;2023-04-06T10:54:09;22.50;56.60
56300;DHT22;42209;6.376;-10.782;2023-04-06T10:56:39;22.70;59.60
56300;DHT22;42209;6.376;-10.782;2023-04-06T10:59:07;22.90;62.30
56300;DHT22;42209;6.376;-10.782;2023-04-06T11:01:35;23.00;61.70
56300;DHT22;42209;6.376;-10.782;2023-04-06T11:04:03;23.00;55.90
56300;DHT22;42209;6.376;-10.782;2023-04-06T11:06:32;22.80;53.90
56300;DHT22;42209;6.376;-10.782;2023-04-06T11:09:00;22.70;52.20
56300;DHT22;42209;6.376;-10.782;2023-04-06T11:11:28;22.50;51.00
56300;DHT22;42209;6.376;-10.782;2023-04-06T11:14:00;22.50;50.00
56300;DHT22;42209;6.376;-10.782;2023-04-06T11:16:31;22.40;49.00
56300;DHT22;42209;6.376;-10.782;2023-04-06T11:19:01;22.40;48.70
56300;DHT22;42209;6.376;-10.782;2023-04-06T11:21:42;22.30;47.90
56300;DHT22;42209;6.376;-10.782;2023-04-06T11:29:21;22.20;46.60
56300;DHT22;42209;6.376;-10.782;2023-04-06T11:31:51;22.20;46.10
56300;DHT22;42209;6.376;-10.782;2023-04-06T11:34:21;22.10;46.50
56300;DHT22;42209;6.376;-10.782;2023-04-06T11:36:55;22.30;52.90
56300;DHT22;42209;6.376;-10.782;2023-04-06T11:39:25;22.50;57.30
56300;DHT22;42209;6.376;-10.782;2023-04-06T11:41:57;22.70;59.70
56300;DHT22;42209;6.376;-10.782;2023-04-06T11:44:39;22.90;61.00
56300;DHT22;42209;6.376;-10.782;2023-04-06T11:47:10;22.90;54.70
56300;DHT22;42209;6.376;-10.782;2023-04-06T11:49:40;22.70;52.50
56300;DHT22;42209;6.376;-10.782;2023-04-06T11:52:23;22.60;51.10
56300;DHT22;42209;6.376;-10.782;2023-04-06T11:54:53;22.50;49.50
56300;DHT22;42209;6.376;-10.782;2023-04-06T11:57:22;22.40;48.60
56300;DHT22;42209;6.376;-10.782;2023-04-06T11:59:50;22.40;47.60
56300;DHT22;42209;6.376;-10.782;2023-04-06T12:02:19;22.30;47.30
56300;DHT22;42209;6.376;-10.782;2023-04-06T12:04:47;22.20;46.90
56300;DHT22;42209;6.376;-10.782;2023-04-06T12:07:17;22.20;46.50
56300;DHT22;42209;6.376;-10.782;2023-04-06T12:09:45;22.20;46.00
56300;DHT22;42209;6.376;-10.782;2023-04-06T12:12:13;22.20;46.10
56300;DHT22;42209;6.376;-10.782;2023-04-06T12:14:41;22.40;51.40
56300;DHT22;42209;6.376;-10.782;2023-04-06T12:17:09;22.60;55.40
56300;DHT22;42209;6.376;-10.782;2023-04-06T12:19:37;22.80;59.30
56300;DHT22;42209;6.376;-10.782;2023-04-06T12:22:05;23.00;60.00
56300;DHT22;42209;6.376;-10.782;2023-04-06T12:24:33;22.90;54.50
56300;DHT22;42209;6.376;-10.782;2023-04-06T12:27:02;22.80;52.10
56300;DHT22;42209;6.376;-10.782;2023-04-06T12:29:37;22.50;50.20
56300;DHT22;42209;6.376;-10.782;2023-04-06T12:32:05;22.40;48.80
56300;DHT22;42209;6.376;-10.782;2023-04-06T12:34:34;22.50;53.20
56300;DHT22;42209;6.376;-10.782;2023-04-06T12:37:02;22.60;56.90
56300;DHT22;42209;6.376;-10.782;2023-04-06T12:39:30;22.80;60.50
56300;DHT22;42209;6.376;-10.782;2023-04-06T12:41:58;23.00;62.60
56300;DHT22;42209;6.376;-10.782;2023-04-06T12:44:27;23.00;59.60
56300;DHT22;42209;6.376;-10.782;2023-04-06T12:46:55;22.90;55.30
56300;DHT22;42209;6.376;-10.782;2023-04-06T12:49:23;22.70;53.20
56300;DHT22;42209;6.376;-10.782;2023-04-06T12:51:51;22.60;51.10
56300;DHT22;42209;6.376;-10.782;2023-04-06T12:54:20;22.50;49.90
56300;DHT22;42209;6.376;-10.782;2023-04-06T12:56:48;22.50;54.70
56300;DHT22;42209;6.376;-10.782;2023-04-06T12:59:16;22.70;58.50
56300;DHT22;42209;6.376;-10.782;2023-04-06T13:01:45;22.90;61.20
56300;DHT22;42209;6.376;-10.782;2023-04-06T13:04:13;23.10;63.70
56300;DHT22;42209;6.376;-10.782;2023-04-06T13:06:41;23.00;57.30
56300;DHT22;42209;6.376;-10.782;2023-04-06T13:09:09;22.80;54.60
56300;DHT22;42209;6.376;-10.782;2023-04-06T13:11:37;22.70;52.60
56300;DHT22;42209;6.376;-10.782;2023-04-06T13:14:06;22.50;50.90
56300;DHT22;42209;6.376;-10.782;2023-04-06T13:16:34;22.40;49.30
56300;DHT22;42209;6.376;-10.782;2023-04-06T13:19:02;22.40;48.20
56300;DHT22;42209;6.376;-10.782;2023-04-06T13:21:31;22.50;53.80
56300;DHT22;42209;6.376;-10.782;2023-04-06T13:23:59;22.70;57.70
56300;DHT22;42209;6.376;-10.782;2023-04-06T13:26:27;22.90;60.50
56300;DHT22;42209;6.376;-10.782;2023-04-06T13:28:55;23.10;61.40
56300;DHT22;42209;6.376;-10.782;2023-04-06T13:31:24;23.20;55.50
56300;DHT22;42209;6.376;-10.782;2023-04-06T13:33:52;23.00;52.70
56300;DHT22;42209;6.376;-10.782;2023-04-06T13:36:20;22.80;51.10
56300;DHT22;42209;6.376;-10.782;2023-04-06T13:38:48;22.70;50.00
56300;DHT22;42209;6.376;-10.782;2023-04-06T13:41:20;22.70;49.60
56300;DHT22;42209;6.376;-10.782;2023-04-06T13:43:49;22.60;48.50
56300;DHT22;42209;6.376;-10.782;2023-04-06T13:46:18;22.60;47.60
56300;DHT22;42209;6.376;-10.782;2023-04-06T13:48:46;22.60;47.20
56300;DHT22;42209;6.376;-10.782;2023-04-06T13:51:14;22.60;47.00
56300;DHT22;42209;6.376;-10.782;2023-04-06T13:53:42;22.50;46.80
56300;DHT22;42209;6.376;-10.782;2023-04-06T13:56:11;22.50;46.20
56300;DHT22;42209;6.376;-10.782;2023-04-06T13:58:39;22.50;46.20
56300;DHT22;42209;6.376;-10.782;2023-04-06T14:01:08;22.50;45.80
56300;DHT22;42209;6.376;-10.782;2023-04-06T14:03:37;22.40;45.60
56300;DHT22;42209;6.376;-10.782;2023-04-06T14:06:12;22.40;45.30
56300;DHT22;42209;6.376;-10.782;2023-04-06T14:08:43;22.40;45.00
56300;DHT22;42209;6.376;-10.782;2023-04-06T14:11:12;22.40;44.80
56300;DHT22;42209;6.376;-10.782;2023-04-06T14:13:41;22.40;44.40
56300;DHT22;42209;6.376;-10.782;2023-04-06T14:16:09;22.40;44.50
56300;DHT22;42209;6.376;-10.782;2023-04-06T14:18:37;22.40;44.10
56300;DHT22;42209;6.376;-10.782;2023-04-06T14:21:06;22.40;44.30
56300;DHT22;42209;6.376;-10.782;2023-04-06T14:23:37;22.40;44.00
56300;DHT22;42209;6.376;-10.782;2023-04-06T14:26:07;22.40;43.80
56300;DHT22;42209;6.376;-10.782;2023-04-06T14:28:35;22.40;43.70
56300;DHT22;42209;6.376;-10.782;2023-04-06T14:31:10;22.40;43.80
56300;DHT22;42209;6.376;-10.782;2023-04-06T14:33:39;22.40;44.10
56300;DHT22;42209;6.376;-10.782;2023-04-06T14:36:09;22.40;43.80
56300;DHT22;42209;6.376;-10.782;2023-04-06T14:38:37;22.30;43.50
56300;DHT22;42209;6.376;-10.782;2023-04-06T14:41:05;22.30;43.50
56300;DHT22;42209;6.376;-10.782;2023-04-06T14:43:33;22.30;43.40
56300;DHT22;42209;6.376;-10.782;2023-04-06T14:46:01;22.30;45.30
56300;DHT22;42209;6.376;-10.782;2023-04-06T14:48:30;22.50;49.90
56300;DHT22;42209;6.376;-10.782;2023-04-06T14:50:58;22.70;53.20
56300;DHT22;42209;6.376;-10.782;2023-04-06T14:53:27;23.00;56.20
56300;DHT22;42209;6.376;-10.782;2023-04-06T14:55:57;23.10;53.30
56300;DHT22;42209;6.376;-10.782;2023-04-06T14:58:25;22.90;50.40
56300;DHT22;42209;6.376;-10.782;2023-04-06T15:00:57;22.70;48.40
56300;DHT22;42209;6.376;-10.782;2023-04-06T15:03:25;22.60;47.30
56300;DHT22;42209;6.376;-10.782;2023-04-06T15:05:55;22.60;47.00
56300;DHT22;42209;6.376;-10.782;2023-04-06T15:08:24;22.50;45.90
56300;DHT22;42209;6.376;-10.782;2023-04-06T15:10:53;22.50;45.80
56300;DHT22;42209;6.376;-10.782;2023-04-06T15:13:21;22.40;45.10
56300;DHT22;42209;6.376;-10.782;2023-04-06T15:15:50;22.40;45.10
56300;DHT22;42209;6.376;-10.782;2023-04-06T15:18:19;22.40;44.90
56300;DHT22;42209;6.376;-10.782;2023-04-06T15:20:47;22.40;44.70
56300;DHT22;42209;6.376;-10.782;2023-04-06T15:23:17;22.40;44.50
56300;DHT22;42209;6.376;-10.782;2023-04-06T15:25:45;22.30;44.50
56300;DHT22;42209;6.376;-10.782;2023-04-06T15:28:13;22.40;44.10
56300;DHT22;42209;6.376;-10.782;2023-04-06T15:30:42;22.30;44.20
56300;DHT22;42209;6.376;-10.782;2023-04-06T15:33:10;22.30;43.90
56300;DHT22;42209;6.376;-10.782;2023-04-06T15:35:38;22.40;49.90
56300;DHT22;42209;6.376;-10.782;2023-04-06T15:38:07;22.70;54.10
56300;DHT22;42209;6.376;-10.782;2023-04-06T15:40:47;22.90;57.00
56300;DHT22;42209;6.376;-10.782;2023-04-06T15:43:16;23.10;58.20
56300;DHT22;42209;6.376;-10.782;2023-04-06T15:45:45;23.00;52.90
56300;DHT22;42209;6.376;-10.782;2023-04-06T15:48:13;23.00;50.30
56300;DHT22;42209;6.376;-10.782;2023-04-06T15:50:41;22.90;49.00
56300;DHT22;42209;6.376;-10.782;2023-04-06T15:53:10;22.80;48.00
56300;DHT22;42209;6.376;-10.782;2023-04-06T15:55:38;22.70;47.00
56300;DHT22;42209;6.376;-10.782;2023-04-06T15:58:06;22.70;46.60
56300;DHT22;42209;6.376;-10.782;2023-04-06T16:00:34;22.70;46.10
56300;DHT22;42209;6.376;-10.782;2023-04-06T16:03:02;22.60;45.80
56300;DHT22;42209;6.376;-10.782;2023-04-06T16:05:31;22.60;45.60
56300;DHT22;42209;6.376;-10.782;2023-04-06T16:08:02;22.70;45.00
56300;DHT22;42209;6.376;-10.782;2023-04-06T16:10:30;22.70;44.70
56300;DHT22;42209;6.376;-10.782;2023-04-06T16:12:59;22.70;44.30
56300;DHT22;42209;6.376;-10.782;2023-04-06T16:15:27;22.60;44.10
56300;DHT22;42209;6.376;-10.782;2023-04-06T16:17:55;22.60;43.90
56300;DHT22;42209;6.376;-10.782;2023-04-06T16:20:26;22.60;43.80
56300;DHT22;42209;6.376;-10.782;2023-04-06T16:22:54;22.70;43.30
56300;DHT22;42209;6.376;-10.782;2023-04-06T16:25:23;22.60;42.90
56300;DHT22;42209;6.376;-10.782;2023-04-06T16:27:51;22.70;42.90
56300;DHT22;42209;6.376;-10.782;2023-04-06T16:30:19;22.70;42.60
56300;DHT22;42209;6.376;-10.782;2023-04-06T16:32:47;22.70;42.70
56300;DHT22;42209;6.376;-10.782;2023-04-06T16:35:16;22.60;42.50
56300;DHT22;42209;6.376;-10.782;2023-04-06T16:37:44;22.70;42.80
56300;DHT22;42209;6.376;-10.782;2023-04-06T16:40:12;22.70;42.50
56300;DHT22;42209;6.376;-10.782;2023-04-06T16:42:44;22.70;42.20
56300;DHT22;42209;6.376;-10.782;2023-04-06T16:45:12;22.70;42.20
56300;DHT22;42209;6.376;-10.782;2023-04-06T16:47:40;22.60;42.10
56300;DHT22;42209;6.376;-10.782;2023-04-06T16:50:09;22.70;42.00
56300;DHT22;42209;6.376;-10.782;2023-04-06T16:52:37;22.70;41.60
56300;DHT22;42209;6.376;-10.782;2023-04-06T16:55:06;22.70;41.80
56300;DHT22;42209;6.376;-10.782;2023-04-06T16:57:34;22.70;41.80
56300;DHT22;42209;6.376;-10.782;2023-04-06T17:00:03;22.60;41.90
56300;DHT22;42209;6.376;-10.782;2023-04-06T17:02:31;22.60;41.80
56300;DHT22;42209;6.376;-10.782;2023-04-06T17:05:00;22.70;41.70
56300;DHT22;42209;6.376;-10.782;2023-04-06T17:07:28;22.60;41.50
56300;DHT22;42209;6.376;-10.782;2023-04-06T17:09:58;22.70;41.40
56300;DHT22;42209;6.376;-10.782;2023-04-06T17:12:28;22.60;41.10
56300;DHT22;42209;6.376;-10.782;2023-04-06T17:14:56;22.60;41.30
56300;DHT22;42209;6.376;-10.782;2023-04-06T17:17:24;22.60;41.30
56300;DHT22;42209;6.376;-10.782;2023-04-06T17:19:53;22.60;40.80
56300;DHT22;42209;6.376;-10.782;2023-04-06T17:22:21;22.60;41.10
56300;DHT22;42209;6.376;-10.782;2023-04-06T17:24:49;22.60;40.80
56300;DHT22;42209;6.376;-10.782;2023-04-06T17:27:18;22.60;41.00
56300;DHT22;42209;6.376;-10.782;2023-04-06T17:29:46;22.70;40.70
56300;DHT22;42209;6.376;-10.782;2023-04-06T17:32:14;22.70;41.00
56300;DHT22;42209;6.376;-10.782;2023-04-06T17:34:43;22.60;40.70
56300;DHT22;42209;6.376;-10.782;2023-04-06T17:37:11;22.60;40.60
56300;DHT22;42209;6.376;-10.782;2023-04-06T17:39:40;22.60;40.60
56300;DHT22;42209;6.376;-10.782;2023-04-06T17:42:08;22.60;40.50
56300;DHT22;42209;6.376;-10.782;2023-04-06T17:44:36;22.60;40.50
56300;DHT22;42209;6.376;-10.782;2023-04-06T17:47:04;22.60;40.90
56300;DHT22;42209;6.376;-10.782;2023-04-06T17:49:32;22.60;40.60
56300;DHT22;42209;6.376;-10.782;2023-04-06T17:52:01;22.60;40.90
56300;DHT22;42209;6.376;-10.782;2023-04-06T17:54:29;22.60;41.00
56300;DHT22;42209;6.376;-10.782;2023-04-06T17:56:57;22.60;41.70
56300;DHT22;42209;6.376;-10.782;2023-04-06T17:59:25;22.50;40.70
56300;DHT22;42209;6.376;-10.782;2023-04-06T18:01:54;22.50;40.80
56300;DHT22;42209;6.376;-10.782;2023-04-06T18:04:22;22.50;40.90
56300;DHT22;42209;6.376;-10.782;2023-04-06T18:06:50;22.50;40.60
56300;DHT22;42209;6.376;-10.782;2023-04-06T18:09:20;22.50;41.30
56300;DHT22;42209;6.376;-10.782;2023-04-06T18:11:50;22.50;41.60
56300;DHT22;42209;6.376;-10.782;2023-04-06T18:14:21;22.60;42.20
56300;DHT22;42209;6.376;-10.782;2023-04-06T18:16:49;22.60;43.00
56300;DHT22;42209;6.376;-10.782;2023-04-06T18:19:17;22.60;44.60
56300;DHT22;42209;6.376;-10.782;2023-04-06T18:21:49;22.60;45.30
56300;DHT22;42209;6.376;-10.782;2023-04-06T18:24:17;22.60;45.70
56300;DHT22;42209;6.376;-10.782;2023-04-06T18:27:05;22.70;45.90
56300;DHT22;42209;6.376;-10.782;2023-04-06T18:29:35;22.70;46.90
56300;DHT22;42209;6.376;-10.782;2023-04-06T18:32:05;22.70;46.60
56300;DHT22;42209;6.376;-10.782;2023-04-06T18:34:33;22.80;47.50
56300;DHT22;42209;6.376;-10.782;2023-04-06T18:37:01;22.80;48.80
56300;DHT22;42209;6.376;-10.782;2023-04-06T18:39:30;22.80;49.00
56300;DHT22;42209;6.376;-10.782;2023-04-06T18:41:59;22.90;48.50
56300;DHT22;42209;6.376;-10.782;2023-04-06T18:44:27;22.90;48.80
56300;DHT22;42209;6.376;-10.782;2023-04-06T18:46:55;22.90;48.70
56300;DHT22;42209;6.376;-10.782;2023-04-06T18:49:24;22.90;48.60
56300;DHT22;42209;6.376;-10.782;2023-04-06T18:51:52;22.90;48.90
56300;DHT22;42209;6.376;-10.782;2023-04-06T18:54:20;22.90;49.10
56300;DHT22;42209;6.376;-10.782;2023-04-06T18:56:48;22.90;47.70
56300;DHT22;42209;6.376;-10.782;2023-04-06T18:59:16;22.90;46.50
56300;DHT22;42209;6.376;-10.782;2023-04-06T19:01:44;22.80;46.00
56300;DHT22;42209;6.376;-10.782;2023-04-06T19:04:13;22.80;45.50
56300;DHT22;42209;6.376;-10.782;2023-04-06T19:06:42;22.80;45.30
56300;DHT22;42209;6.376;-10.782;2023-04-06T19:09:10;22.70;44.40
56300;DHT22;42209;6.376;-10.782;2023-04-06T19:11:40;22.70;43.90
56300;DHT22;42209;6.376;-10.782;2023-04-06T19:14:12;22.70;43.60
56300;DHT22;42209;6.376;-10.782;2023-04-06T19:16:43;22.70;43.90
56300;DHT22;42209;6.376;-10.782;2023-04-06T19:19:11;22.70;43.30
56300;DHT22;42209;6.376;-10.782;2023-04-06T19:21:39;22.70;43.40
56300;DHT22;42209;6.376;-10.782;2023-04-06T19:24:07;22.70;42.70
56300;DHT22;42209;6.376;-10.782;2023-04-06T19:26:38;22.60;42.50
56300;DHT22;42209;6.376;-10.782;2023-04-06T19:29:06;22.60;42.30
56300;DHT22;42209;6.376;-10.782;2023-04-06T19:31:35;22.60;42.10
56300;DHT22;42209;6.376;-10.782;2023-04-06T19:34:03;22.60;41.80
56300;DHT22;42209;6.376;-10.782;2023-04-06T19:36:32;22.60;41.50
56300;DHT22;42209;6.376;-10.782;2023-04-06T19:39:00;22.60;41.30
56300;DHT22;42209;6.376;-10.782;2023-04-06T19:41:28;22.60;41.20
56300;DHT22;42209;6.376;-10.782;2023-04-06T19:43:56;22.60;41.20
56300;DHT22;42209;6.376;-10.782;2023-04-06T19:46:24;22.60;40.80
56300;DHT22;42209;6.376;-10.782;2023-04-06T19:48:52;22.60;40.80
56300;DHT22;42209;6.376;-10.782;2023-04-06T19:51:21;22.60;41.20
56300;DHT22;42209;6.376;-10.782;2023-04-06T19:53:49;22.50;41.20
56300;DHT22;42209;6.376;-10.782;2023-04-06T19:56:17;22.50;40.70
56300;DHT22;42209;6.376;-10.782;2023-04-06T19:58:45;22.50;40.60
56300;DHT22;42209;6.376;-10.782;2023-04-06T20:01:13;22.50;40.70
56300;DHT22;42209;6.376;-10.782;2023-04-06T20:03:41;22.50;40.80
56300;DHT22;42209;6.376;-10.782;2023-04-06T20:06:10;22.50;41.20
56300;DHT22;42209;6.376;-10.782;2023-04-06T20:08:38;22.60;42.80
56300;DHT22;42209;6.376;-10.782;2023-04-06T20:11:07;22.60;44.60
56300;DHT22;42209;6.376;-10.782;2023-04-06T20:13:36;22.70;44.90
56300;DHT22;42209;6.376;-10.782;2023-04-06T20:16:04;22.60;43.80
56300;DHT22;42209;6.376;-10.782;2023-04-06T20:18:32;22.60;43.60
56300;DHT22;42209;6.376;-10.782;2023-04-06T20:21:00;22.60;43.90
56300;DHT22;42209;6.376;-10.782;2023-04-06T20:23:29;22.90;48.60
56300;DHT22;42209;6.376;-10.782;2023-04-06T20:25:57;23.10;53.20
56300;DHT22;42209;6.376;-10.782;2023-04-06T20:28:25;23.20;54.30
56300;DHT22;42209;6.376;-10.782;2023-04-06T20:30:54;23.30;54.10
56300;DHT22;42209;6.376;-10.782;2023-04-06T20:33:22;23.10;50.40
56300;DHT22;42209;6.376;-10.782;2023-04-06T20:36:00;22.80;48.10
56300;DHT22;42209;6.376;-10.782;2023-04-06T20:38:28;22.60;46.20
56300;DHT22;42209;6.376;-10.782;2023-04-06T20:41:00;22.50;45.00
56300;DHT22;42209;6.376;-10.782;2023-04-06T20:43:28;22.50;49.80
56300;DHT22;42209;6.376;-10.782;2023-04-06T20:45:57;22.70;53.80
56300;DHT22;42209;6.376;-10.782;2023-04-06T20:48:26;23.00;56.80
56300;DHT22;42209;6.376;-10.782;2023-04-06T20:50:55;23.20;57.10
56300;DHT22;42209;6.376;-10.782;2023-04-06T20:53:23;23.20;52.00
56300;DHT22;42209;6.376;-10.782;2023-04-06T20:55:51;22.80;48.20
56300;DHT22;42209;6.376;-10.782;2023-04-06T20:58:19;22.60;46.70
56300;DHT22;42209;6.376;-10.782;2023-04-06T21:00:48;22.50;52.60
56300;DHT22;42209;6.376;-10.782;2023-04-06T21:03:16;22.80;56.50
56300;DHT22;42209;6.376;-10.782;2023-04-06T21:05:52;23.00;57.30
56300;DHT22;42209;6.376;-10.782;2023-04-06T21:08:21;23.20;57.70
56300;DHT22;42209;6.376;-10.782;2023-04-06T21:10:49;23.20;54.30
56300;DHT22;42209;6.376;-10.782;2023-04-06T21:13:18;22.90;49.90
56300;DHT22;42209;6.376;-10.782;2023-04-06T21:15:48;22.60;47.60
56300;DHT22;42209;6.376;-10.782;2023-04-06T21:18:16;22.60;53.40
56300;DHT22;42209;6.376;-10.782;2023-04-06T21:20:44;22.80;56.60
56300;DHT22;42209;6.376;-10.782;2023-04-06T21:23:13;23.00;58.90
56300;DHT22;42209;6.376;-10.782;2023-04-06T21:25:41;23.20;60.30
56300;DHT22;42209;6.376;-10.782;2023-04-06T21:28:09;23.30;56.00
56300;DHT22;42209;6.376;-10.782;2023-04-06T21:30:37;23.10;52.40
56300;DHT22;42209;6.376;-10.782;2023-04-06T21:33:06;22.90;49.60
56300;DHT22;42209;6.376;-10.782;2023-04-06T21:35:40;22.80;48.50
56300;DHT22;42209;6.376;-10.782;2023-04-06T21:38:10;22.70;47.30
56300;DHT22;42209;6.376;-10.782;2023-04-06T21:40:38;22.70;47.00
56300;DHT22;42209;6.376;-10.782;2023-04-06T21:43:07;22.70;46.00
56300;DHT22;42209;6.376;-10.782;2023-04-06T21:45:35;22.70;45.40
56300;DHT22;42209;6.376;-10.782;2023-04-06T21:48:04;22.60;44.70
56300;DHT22;42209;6.376;-10.782;2023-04-06T21:50:32;22.60;44.40